Time;durP1;ratioP1;P1;durP2;ratioP2;P2;SDS_P1;SDS_P2;PMS_P1;PMS_P2;Temp;Humidity;BMP_temperature;BMP_pressure;BME280_temperature;BME280_humidity;BME280_pressure;Samples;Min_cycle;Max_cycle;Signal;HPM_P1;HPM_P2
2022/02/17 00:01:39;;;;;;;;;;;;;;;;;;5053622;28;19920;-76
2022/02/17 00:04:04;;;;;;;;;;;;;;;;;;5053351;28;19916;-76
2022/02/17 00:06:29;;;;;;;;;;;;;;;;;;5053289;28;19959;-75
2022/02/17 00:08:55;;;;;;;;;;;;;;;;;;5053054;28;19917;-76
2022/02/17 00:11:20;;;;;;;;;;;;;;;;;;5053080;28;19971;-76
2022/02/17 00:13:46;;;;;;;;;;;;;;;;;;5053095;28;19920;-80
2022/02/17 00:16:11;;;;;;;;;;;;;;;;;;5053472;28;19921;-79
2022/02/17 00:18:36;;;;;;;;;;;;;;;;;;5053209;28;19963;-76
2022/02/17 00:21:02;;;;;;;;;;;;;;;;;;5053144;28;19920;-80
2022/02/17 00:23:27;;;;;;;;;;;;;;;;;;5053153;28;20369;-77
2022/02/17 00:25:54;;;;;;;;;;;;;;;;;;5053095;28;19966;-80
2022/02/17 00:28:19;;;;;;;;;;;;;;;;;;5053383;28;20353;-80
2022/02/17 00:30:45;;;;;;;;;;;;;;;;;;5052788;28;19960;-77
2022/02/17 00:33:10;;;;;;;;;;;;;;;;;;5052953;28;19917;-77
2022/02/17 00:35:36;;;;;;;;;;;;;;;;;;5053587;28;20364;-75
2022/02/17 00:38:01;;;;;;;;;;;;;;;;;;5053347;28;19967;-76
2022/02/17 00:40:27;;;;;;;;;;;;;;;;;;5052969;28;19923;-76
2022/02/17 00:42:52;;;;;;;;;;;;;;;;;;5053029;28;20373;-76
2022/02/17 00:45:18;;;;;;;;;;;;;;;;;;5052947;28;20296;-77
2022/02/17 00:47:43;;;;;;;;;;;;;;;;;;5052888;28;19921;-80
2022/02/17 00:50:09;;;;;;;;;;;;;;;;;;5056392;28;20284;-76
2022/02/17 00:52:34;;;;;;;;;;;;;;;;;;5056458;28;19919;-75
2022/02/17 00:55:00;;;;;;;;;;;;;;;;;;5056332;28;20373;-80
2022/02/17 00:57:25;;;;;;;;;;;;;;;;;;5056427;28;19913;-81
2022/02/17 00:59:51;;;;;;;;;;;;;;;;;;5056313;28;19924;-80
2022/02/17 01:02:16;;;;;;;;;;;;;;;;;;5056382;28;20435;-76
2022/02/17 01:04:42;;;;;;;;;;;;;;;;;;5056207;28;19913;-76
2022/02/17 01:07:07;;;;;;;;;;;;;;;;;;5054962;28;20254;-75
2022/02/17 01:09:33;;;;;;;;;;;;;;;;;;5056043;28;20293;-76
2022/02/17 01:11:59;;;;;;;;;;;;;;;;;;5055883;28;19964;-75
2022/02/17 01:14:24;;;;;;;;;;;;;;;;;;5056131;28;19956;-76
2022/02/17 01:16:50;;;;;;;;;;;;;;;;;;5056361;28;20329;-75
2022/02/17 01:19:15;;;;;;;;;;;;;;;;;;5055873;28;19963;-77
2022/02/17 01:21:41;;;;;;;;;;;;;;;;;;5055936;28;19967;-75
2022/02/17 01:24:06;;;;;;;;;;;;;;;;;;5055959;28;19921;-75
2022/02/17 01:26:32;;;;;;;;;;;;;;;;;;5056062;28;19943;-75
2022/02/17 01:28:57;;;;;;;;;;;;;;;;;;5055661;28;19917;-76
2022/02/17 01:31:23;;;;;;;;;;;;;;;;;;5055466;28;19916;-75
2022/02/17 01:33:48;;;;;;;;;;;;;;;;;;5055853;28;19963;-76
2022/02/17 01:36:14;;;;;;;;;;;;;;;;;;5055843;28;19919;-79
2022/02/17 01:38:40;;;;;;;;;;;;;;;;;;5055755;28;20284;-81
2022/02/17 01:41:06;;;;;;;;;;;;;;;;;;5054261;28;19935;-78
2022/02/17 01:43:32;;;;;;;;;;;;;;;;;;5054245;28;20373;-80
2022/02/17 01:45:59;;;;;;;;;;;;;;;;;;5055521;28;19924;-80
2022/02/17 01:48:24;;;;;;;;;;;;;;;;;;5055775;28;19916;-75
2022/02/17 01:50:50;;;;;;;;;;;;;;;;;;5055612;28;20418;-76
2022/02/17 01:53:16;;;;;;;;;;;;;;;;;;5055274;28;19913;-77
2022/02/17 01:55:44;;;;;;;;;;;;;;;;;;5055384;28;20373;-76
2022/02/17 01:58:09;;;;;;;;;;;;;;;;;;5055154;28;19960;-75
2022/02/17 02:00:35;;;;;;;;;;;;;;;;;;5054059;28;19913;-80
2022/02/17 02:03:00;;;;;;;;;;;;;;;;;;5055179;28;19925;-76
2022/02/17 02:05:26;;;;;;;;;;;;;;;;;;5055189;28;19917;-80
2022/02/17 02:07:52;;;;;;;;;;;;;;;;;;5054965;28;20273;-81
2022/02/17 02:10:17;;;;;;;;;;;;;;;;;;5054981;28;20015;-76
2022/02/17 02:12:43;;;;;;;;;;;;;;;;;;5054866;28;19951;-80
2022/02/17 02:15:08;;;;;;;;;;;;;;;;;;5054670;28;20434;-76
2022/02/17 02:17:34;;;;;;;;;;;;;;;;;;5054914;28;19923;-79
2022/02/17 02:20:03;;;;;;;;;;;;;;;;;;5054770;28;20312;-75
2022/02/17 02:22:30;;;;;;;;;;;;;;;;;;5054897;28;19917;-78
2022/02/17 02:24:58;;;;;;;;;;;;;;;;;;5054586;28;20023;-77
2022/02/17 02:27:24;;;;;;;;;;;;;;;;;;5054686;28;19963;-75
2022/02/17 02:29:49;;;;;;;;;;;;;;;;;;5054582;28;19917;-76
2022/02/17 02:32:15;;;;;;;;;;;;;;;;;;5054221;28;19917;-81
2022/02/17 02:34:40;;;;;;;;;;;;;;;;;;5054577;28;19916;-78
2022/02/17 02:37:06;;;;;;;;;;;;;;;;;;5054355;28;19921;-80
2022/02/17 02:39:32;;;;;;;;;;;;;;;;;;5054483;28;19924;-76
2022/02/17 02:41:57;;;;;;;;;;;;;;;;;;5054390;28;19916;-75
2022/02/17 02:44:23;;;;;;;;;;;;;;;;;;5054093;28;20281;-80
2022/02/17 02:46:48;;;;;;;;;;;;;;;;;;5054336;28;20289;-77
2022/02/17 02:49:14;;;;;;;;;;;;;;;;;;5054140;28;20293;-76
2022/02/17 02:51:39;;;;;;;;;;;;;;;;;;5054280;28;19924;-80
2022/02/17 02:54:05;;;;;;;;;;;;;;;;;;5054390;28;19924;-77
2022/02/17 02:56:30;;;;;;;;;;;;;;;;;;5056275;28;20399;-76
2022/02/17 02:58:56;;;;;;;;;;;;;;;;;;5069661;28;19921;-75
2022/02/17 03:01:21;;;;;;;;;;;;;;;;;;5068117;28;19900;-75
2022/02/17 03:03:49;;;;;;;;;;;;;;;;;;5055546;28;19923;-76
2022/02/17 03:06:15;;;;;;;;;;;;;;;;;;5052781;28;19923;-79
2022/02/17 03:08:40;;;;;;;;;;;;;;;;;;5053874;28;19936;-75
2022/02/17 03:11:06;;;;;;;;;;;;;;;;;;5053204;28;19920;-80
2022/02/17 03:13:31;;;;;;;;;;;;;;;;;;5053465;28;19920;-80
2022/02/17 03:15:56;;;;;;;;;;;;;;;;;;5053934;28;19921;-76
2022/02/17 03:18:22;;;;;;;;;;;;;;;;;;5053847;28;19917;-81
2022/02/17 03:20:47;;;;;;;;;;;;;;;;;;5053815;28;19917;-80
2022/02/17 03:23:13;;;;;;;;;;;;;;;;;;5053623;28;20333;-78
2022/02/17 03:25:38;;;;;;;;;;;;;;;;;;5053739;28;19917;-76
2022/02/17 03:28:04;;;;;;;;;;;;;;;;;;5053604;28;19921;-76
2022/02/17 03:30:29;;;;;;;;;;;;;;;;;;5053689;28;19923;-75
2022/02/17 03:32:55;;;;;;;;;;;;;;;;;;5053430;28;20007;-77
2022/02/17 03:35:20;;;;;;;;;;;;;;;;;;5053601;28;20369;-78
2022/02/17 03:37:45;;;;;;;;;;;;;;;;;;5053659;28;19970;-76
2022/02/17 03:40:11;;;;;;;;;;;;;;;;;;5052344;28;19967;-76
2022/02/17 03:42:37;;;;;;;;;;;;;;;;;;5052290;28;20443;-78
2022/02/17 03:45:03;;;;;;;;;;;;;;;;;;5053538;28;19955;-78
2022/02/17 03:47:28;;;;;;;;;;;;;;;;;;5053533;28;19921;-75
2022/02/17 03:49:54;;;;;;;;;;;;;;;;;;5053410;28;20311;-77
2022/02/17 03:52:19;;;;;;;;;;;;;;;;;;5053123;28;19921;-76
2022/02/17 03:54:45;;;;;;;;;;;;;;;;;;5053584;28;19921;-77
2022/02/17 03:57:10;;;;;;;;;;;;;;;;;;5053335;28;19970;-76
2022/02/17 03:59:36;;;;;;;;;;;;;;;;;;5053349;28;20062;-76
2022/02/17 04:02:02;;;;;;;;;;;;;;;;;;5053324;28;19917;-82
2022/02/17 04:04:27;;;;;;;;;;;;;;;;;;5053694;28;19924;-81
2022/02/17 04:06:52;;;;;;;;;;;;;;;;;;5053374;28;20348;-80
2022/02/17 04:09:18;;;;;;;;;;;;;;;;;;5053411;28;19923;-75
2022/02/17 04:11:43;;;;;;;;;;;;;;;;;;5053112;28;20381;-80
2022/02/17 04:14:09;;;;;;;;;;;;;;;;;;5053037;28;19921;-76
2022/02/17 04:16:34;;;;;;;;;;;;;;;;;;5053271;28;19917;-80
2022/02/17 04:19:00;;;;;;;;;;;;;;;;;;5053163;28;20285;-80
2022/02/17 04:21:26;;;;;;;;;;;;;;;;;;5053293;28;20024;-75
2022/02/17 04:23:51;;;;;;;;;;;;;;;;;;5055090;28;19917;-81
2022/02/17 04:26:17;;;;;;;;;;;;;;;;;;5057185;28;19964;-79
2022/02/17 04:28:44;;;;;;;;;;;;;;;;;;5057068;28;19923;-75
2022/02/17 04:31:10;;;;;;;;;;;;;;;;;;5056831;28;19916;-75
2022/02/17 04:33:36;;;;;;;;;;;;;;;;;;5056572;28;20411;-78
2022/02/17 04:36:02;;;;;;;;;;;;;;;;;;5057007;28;20148;-80
2022/02/17 04:38:28;;;;;;;;;;;;;;;;;;5056742;28;20373;-80
2022/02/17 04:43:37;;;;;;;;;;;;;;;;;;5057063;28;20019;-78
2022/02/17 04:46:02;;;;;;;;;;;;;;;;;;5056715;28;20004;-80
2022/02/17 04:48:28;;;;;;;;;;;;;;;;;;5056511;28;19917;-80
2022/02/17 04:50:53;;;;;;;;;;;;;;;;;;5056483;28;20346;-80
2022/02/17 04:53:19;;;;;;;;;;;;;;;;;;5056152;28;19913;-75
2022/02/17 04:55:44;;;;;;;;;;;;;;;;;;5056520;28;19924;-75
2022/02/17 04:58:10;;;;;;;;;;;;;;;;;;5056445;28;20066;-80
2022/02/17 05:00:37;;;;;;;;;;;;;;;;;;5051855;28;21684;-79
2022/02/17 05:03:03;;;;;;;;;;;;;;;;;;5040335;28;19921;-81
2022/02/17 05:05:29;;;;;;;;;;;;;;;;;;5042142;28;19967;-80
2022/02/17 05:07:54;;;;;;;;;;;;;;;;;;5049297;28;19916;-82
2022/02/17 05:10:20;;;;;;;;;;;;;;;;;;5056216;28;19971;-80
2022/02/17 05:12:45;;;;;;;;;;;;;;;;;;5055683;28;19913;-80
2022/02/17 05:15:10;;;;;;;;;;;;;;;;;;5055661;28;19968;-81
2022/02/17 05:17:36;;;;;;;;;;;;;;;;;;5056394;28;19925;-78
2022/02/17 05:20:01;;;;;;;;;;;;;;;;;;5055157;28;19921;-80
2022/02/17 05:22:27;;;;;;;;;;;;;;;;;;5050706;28;19921;-79
2022/02/17 05:24:53;;;;;;;;;;;;;;;;;;5045170;28;19939;-75
2022/02/17 05:27:18;;;;;;;;;;;;;;;;;;5056146;28;20304;-80
2022/02/17 05:29:44;;;;;;;;;;;;;;;;;;5055780;28;19924;-74
2022/02/17 05:32:09;;;;;;;;;;;;;;;;;;5055463;28;19917;-77
2022/02/17 05:34:35;;;;;;;;;;;;;;;;;;5054648;28;20386;-81
2022/02/17 05:37:01;;;;;;;;;;;;;;;;;;5055015;28;20357;-79
2022/02/17 05:39:27;;;;;;;;;;;;;;;;;;5055966;28;19920;-81
2022/02/17 05:41:53;;;;;;;;;;;;;;;;;;5055701;28;20391;-82
2022/02/17 05:44:18;;;;;;;;;;;;;;;;;;5055608;28;19917;-74
2022/02/17 05:46:43;;;;;;;;;;;;;;;;;;5055571;28;19923;-75
2022/02/17 05:49:09;;;;;;;;;;;;;;;;;;5055227;28;19939;-75
2022/02/17 05:51:34;;;;;;;;;;;;;;;;;;5055404;28;19921;-79
2022/02/17 05:54:00;;;;;;;;;;;;;;;;;;5055128;28;20008;-82
2022/02/17 05:56:25;;;;;;;;;;;;;;;;;;5055668;28;19917;-83
2022/02/17 05:58:50;;;;;;;;;;;;;;;;;;5055288;28;19917;-74
2022/02/17 06:01:16;;;;;;;;;;;;;;;;;;5055217;28;19924;-81
2022/02/17 06:03:41;;;;;;;;;;;;;;;;;;5055189;28;19917;-81
2022/02/17 06:06:07;;;;;;;;;;;;;;;;;;5055126;28;19916;-79
2022/02/17 06:08:32;;;;;;;;;;;;;;;;;;5054897;28;19924;-81
2022/02/17 06:10:58;;;;;;;;;;;;;;;;;;5054920;28;19917;-80
2022/02/17 06:13:24;;;;;;;;;;;;;;;;;;5054568;28;19916;-77
2022/02/17 06:15:49;;;;;;;;;;;;;;;;;;5054999;28;19969;-75
2022/02/17 06:18:15;;;;;;;;;;;;;;;;;;5054941;28;20328;-81
2022/02/17 06:20:40;;;;;;;;;;;;;;;;;;5054925;28;20373;-77
2022/02/17 06:23:06;;;;;;;;;;;;;;;;;;5054769;28;19921;-78
2022/02/17 06:25:31;;;;;;;;;;;;;;;;;;5054814;28;19924;-79
2022/02/17 06:28:00;;;;;;;;;;;;;;;;;;5054515;28;19924;-81
2022/02/17 06:30:26;;;;;;;;;;;;;;;;;;5054822;28;20274;-82
2022/02/17 06:32:53;;;;;;;;;;;;;;;;;;5054453;28;19912;-82
2022/02/17 06:35:20;;;;;;;;;;;;;;;;;;5054463;28;19943;-80
2022/02/17 06:37:46;;;;;;;;;;;;;;;;;;5054836;28;19962;-81
2022/02/17 06:40:11;;;;;;;;;;;;;;;;;;5054556;28;19912;-76
2022/02/17 06:42:37;;;;;;;;;;;;;;;;;;5054526;28;19928;-82
2022/02/17 06:45:03;;;;;;;;;;;;;;;;;;5054319;28;19917;-82
2022/02/17 06:47:28;;;;;;;;;;;;;;;;;;5053778;28;19927;-82
2022/02/17 06:49:54;;;;;;;;;;;;;;;;;;5054089;28;19916;-82
2022/02/17 06:52:19;;;;;;;;;;;;;;;;;;5054243;28;19917;-81
2022/02/17 06:54:44;;;;;;;;;;;;;;;;;;5053961;28;20282;-75
2022/02/17 06:57:10;;;;;;;;;;;;;;;;;;5054150;28;20025;-82
2022/02/17 06:59:36;;;;;;;;;;;;;;;;;;5054088;28;20417;-76
2022/02/17 07:02:01;;;;;;;;;;;;;;;;;;5054072;28;19916;-76
2022/02/17 07:04:27;;;;;;;;;;;;;;;;;;5054116;28;19927;-77
2022/02/17 07:06:52;;;;;;;;;;;;;;;;;;5054545;28;20337;-78
2022/02/17 07:09:18;;;;;;;;;;;;;;;;;;5054154;28;20019;-76
2022/02/17 07:11:44;;;;;;;;;;;;;;;;;;5056777;28;19923;-77
2022/02/17 07:14:09;;;;;;;;;;;;;;;;;;5057422;28;19927;-76
2022/02/17 07:16:35;;;;;;;;;;;;;;;;;;5054643;28;19917;-84
2022/02/17 07:19:01;;;;;;;;;;;;;;;;;;5053799;28;20023;-84
2022/02/17 07:21:26;;;;;;;;;;;;;;;;;;5053938;28;20385;-83
2022/02/17 07:23:52;;;;;;;;;;;;;;;;;;5052489;28;20327;-83
2022/02/17 07:26:17;;;;;;;;;;;;;;;;;;5053657;28;19917;-80
2022/02/17 07:28:44;;;;;;;;;;;;;;;;;;5053548;28;20330;-83
2022/02/17 07:31:11;;;;;;;;;;;;;;;;;;5053689;28;20011;-83
2022/02/17 07:33:37;;;;;;;;;;;;;;;;;;5053543;28;19924;-81
2022/02/17 07:36:03;;;;;;;;;;;;;;;;;;5053896;28;19921;-82
2022/02/17 07:38:28;;;;;;;;;;;;;;;;;;5053681;28;19917;-76
2022/02/17 07:40:54;;;;;;;;;;;;;;;;;;5053742;28;19962;-79
2022/02/17 07:43:19;;;;;;;;;;;;;;;;;;5053571;28;19917;-76
2022/02/17 07:45:45;;;;;;;;;;;;;;;;;;5053880;28;19923;-77
2022/02/17 07:48:10;;;;;;;;;;;;;;;;;;5053589;28;20338;-80
2022/02/17 07:50:35;;;;;;;;;;;;;;;;;;5053566;28;20013;-80
2022/02/17 07:53:01;;;;;;;;;;;;;;;;;;5053349;28;20290;-78
2022/02/17 07:55:27;;;;;;;;;;;;;;;;;;5053428;28;19917;-75
2022/02/17 07:57:53;;;;;;;;;;;;;;;;;;5055723;28;20383;-78
2022/02/17 08:00:19;;;;;;;;;;;;;;;;;;5057581;28;19917;-77
2022/02/17 08:02:44;;;;;;;;;;;;;;;;;;5057513;28;19926;-82
2022/02/17 08:05:12;;;;;;;;;;;;;;;;;;5057612;28;19917;-76
2022/02/17 08:07:38;;;;;;;;;;;;;;;;;;5057383;28;19912;-80
2022/02/17 08:10:04;;;;;;;;;;;;;;;;;;5057385;28;20024;-79
2022/02/17 08:12:30;;;;;;;;;;;;;;;;;;5057486;28;20369;-80
2022/02/17 08:14:57;;;;;;;;;;;;;;;;;;5056978;28;19927;-77
2022/02/17 08:17:22;;;;;;;;;;;;;;;;;;5057421;28;19952;-80
2022/02/17 08:19:48;;;;;;;;;;;;;;;;;;5057222;28;19913;-80
2022/02/17 08:22:13;;;;;;;;;;;;;;;;;;5055996;28;19917;-80
2022/02/17 08:24:39;;;;;;;;;;;;;;;;;;5057143;28;19967;-75
2022/02/17 08:27:04;;;;;;;;;;;;;;;;;;5056951;28;19943;-79
2022/02/17 08:29:31;;;;;;;;;;;;;;;;;;5056789;28;19917;-77
2022/02/17 08:31:57;;;;;;;;;;;;;;;;;;5057068;28;19959;-80
2022/02/17 08:34:22;;;;;;;;;;;;;;;;;;5056595;28;19992;-81
2022/02/17 08:36:48;;;;;;;;;;;;;;;;;;5056973;28;19974;-80
2022/02/17 08:39:14;;;;;;;;;;;;;;;;;;5056976;28;19921;-79
2022/02/17 08:41:39;;;;;;;;;;;;;;;;;;5057144;28;20373;-81
2022/02/17 08:44:05;;;;;;;;;;;;;;;;;;5056635;28;20398;-78
2022/02/17 08:46:31;;;;;;;;;;;;;;;;;;5056684;28;19917;-77
2022/02/17 08:48:57;;;;;;;;;;;;;;;;;;5056324;28;19928;-79
2022/02/17 08:51:24;;;;;;;;;;;;;;;;;;5056711;28;20003;-76
2022/02/17 08:53:49;;;;;;;;;;;;;;;;;;5056378;28;20392;-80
2022/02/17 08:56:15;;;;;;;;;;;;;;;;;;5056349;28;19971;-76
2022/02/17 08:58:40;;;;;;;;;;;;;;;;;;5056525;28;19923;-82
2022/02/17 09:01:05;;;;;;;;;;;;;;;;;;5056279;28;19917;-81
2022/02/17 09:03:31;;;;;;;;;;;;;;;;;;5056413;28;19923;-80
2022/02/17 09:05:57;;;;;;;;;;;;;;;;;;5056218;28;19927;-80
2022/02/17 09:08:22;;;;;;;;;;;;;;;;;;5056216;28;19943;-80
2022/02/17 09:10:48;;;;;;;;;;;;;;;;;;5055518;28;20285;-81
2022/02/17 09:13:15;;;;;;;;;;;;;;;;;;5056120;28;19917;-80
2022/02/17 09:15:40;;;;;;;;;;;;;;;;;;5055997;28;20328;-81
2022/02/17 09:18:15;;;;;;;;;;;;;;;;;;5056079;28;19967;-76
2022/02/17 09:20:41;;;;;;;;;;;;;;;;;;5054773;28;19967;-76
2022/02/17 09:23:06;;;;;;;;;;;;;;;;;;5055947;28;19955;-82
2022/02/17 09:25:32;;;;;;;;;;;;;;;;;;5056228;28;19924;-77
2022/02/17 09:27:58;;;;;;;;;;;;;;;;;;5056087;28;19917;-78
2022/02/17 09:30:23;;;;;;;;;;;;;;;;;;5055769;28;20257;-82
2022/02/17 09:32:49;;;;;;;;;;;;;;;;;;5055823;28;19917;-81
2022/02/17 09:35:14;;;;;;;;;;;;;;;;;;5055425;28;20324;-81
2022/02/17 09:37:40;;;;;;;;;;;;;;;;;;5055811;28;19921;-82
2022/02/17 09:40:05;;;;;;;;;;;;;;;;;;5055894;28;20432;-82
2022/02/17 09:42:38;;;;;;;;;;;;;;;;;;5055699;28;19923;-81
2022/02/17 09:45:08;;;;;;;;;;;;;;;;;;5055861;28;20276;-82
2022/02/17 09:47:34;;;;;;;;;;;;;;;;;;5055525;28;19920;-83
2022/02/17 09:50:00;;;;;;;;;;;;;;;;;;5054284;28;19916;-83
2022/02/17 09:52:27;;;;;;;;;;;;;;;;;;5055468;28;19943;-76
2022/02/17 09:54:53;;;;;;;;;;;;;;;;;;5055180;28;19952;-81
2022/02/17 09:57:20;;;;;;;;;;;;;;;;;;5055283;28;19959;-82
2022/02/17 09:59:46;;;;;;;;;;;;;;;;;;5055409;28;20004;-83
2022/02/17 10:02:20;;;;;;;;;;;;;;;;;;5055285;28;20015;-80
2022/02/17 10:04:51;;;;;;;;;;;;;;;;;;5054147;28;19935;-83
2022/02/17 10:07:28;;;;;;;;;;;;;;;;;;5055083;28;19970;-81
2022/02/17 10:09:58;;;;;;;;;;;;;;;;;;5037070;28;20340;-83
2022/02/17 10:12:23;;;;;;;;;;;;;;;;;;5055046;28;19916;-81
2022/02/17 10:14:57;;;;;;;;;;;;;;;;;;5054695;28;19921;-82
2022/02/17 10:17:23;;;;;;;;;;;;;;;;;;5054986;28;19940;-76
2022/02/17 10:19:49;;;;;;;;;;;;;;;;;;5055026;28;19912;-76
2022/02/17 10:22:19;;;;;;;;;;;;;;;;;;5053864;28;19917;-82
2022/02/17 10:24:52;;;;;;;;;;;;;;;;;;5054781;28;20442;-76
2022/02/17 10:27:18;;;;;;;;;;;;;;;;;;5054555;28;19928;-77
2022/02/17 10:30:08;;;;;;;;;;;;;;;;;;5054715;28;19917;-83
2022/02/17 10:32:34;;;;;;;;;;;;;;;;;;5055075;28;20357;-79
2022/02/17 10:35:09;;;;;;;;;;;;;;;;;;5054391;28;20012;-81
2022/02/17 10:37:44;;;;;;;;;;;;;;;;;;5054470;28;20019;-81
2022/02/17 10:40:25;;;;;;;;;;;;;;;;;;5054467;28;20388;-83
2022/02/17 10:43:13;;;;;;;;;;;;;;;;;;5054654;28;19916;-82
2022/02/17 10:45:39;;;;;;;;;;;;;;;;;;5054581;28;19924;-82
2022/02/17 10:48:31;;;;;;;;;;;;;;;;;;5054332;28;20392;-83
2022/02/17 10:51:07;;;;;;;;;;;;;;;;;;5050440;28;19986;-77
2022/02/17 10:53:43;;;;;;;;;;;;;;;;;;5054287;28;19924;-81
2022/02/17 10:56:09;;;;;;;;;;;;;;;;;;5054270;28;19916;-82
2022/02/17 10:58:38;;;;;;;;;;;;;;;;;;5054180;28;19916;-82
2022/02/17 11:01:05;;;;;;;;;;;;;;;;;;5054401;28;20332;-82
2022/02/17 11:03:34;;;;;;;;;;;;;;;;;;5052849;28;19950;-82
2022/02/17 11:06:00;;;;;;;;;;;;;;;;;;5054072;28;19959;-82
2022/02/17 11:08:26;;;;;;;;;;;;;;;;;;5052742;28;20280;-82
2022/02/17 11:10:51;;;;;;;;;;;;;;;;;;5052702;28;19917;-77
2022/02/17 11:13:20;;;;;;;;;;;;;;;;;;5052894;28;20328;-82
2022/02/17 11:15:47;;;;;;;;;;;;;;;;;;5054381;28;19921;-82
2022/02/17 11:18:14;;;;;;;;;;;;;;;;;;5059985;28;19917;-81
2022/02/17 11:20:40;;;;;;;;;;;;;;;;;;5060461;28;19955;-81
2022/02/17 11:23:06;;;;;;;;;;;;;;;;;;5053989;28;19917;-83
2022/02/17 11:25:34;;;;;;;;;;;;;;;;;;5053900;28;20402;-82
2022/02/17 11:28:07;;;;;;;;;;;;;;;;;;5053721;28;19924;-84
2022/02/17 11:30:33;;;;;;;;;;;;;;;;;;5053756;28;20284;-78
2022/02/17 11:33:17;;;;;;;;;;;;;;;;;;5052427;28;20383;-76
2022/02/17 11:35:43;;;;;;;;;;;;;;;;;;5053636;28;19917;-79
2022/02/17 11:38:31;;;;;;;;;;;;;;;;;;5053591;28;19923;-79
2022/02/17 11:40:57;;;;;;;;;;;;;;;;;;5053665;28;19962;-78
2022/02/17 11:43:26;;;;;;;;;;;;;;;;;;5053513;28;19916;-77
2022/02/17 11:45:52;;;;;;;;;;;;;;;;;;5053674;28;19917;-81
2022/02/17 11:48:31;;;;;;;;;;;;;;;;;;5053429;28;19917;-77
2022/02/17 11:51:09;;;;;;;;;;;;;;;;;;5053628;28;19923;-80
2022/02/17 11:53:35;;;;;;;;;;;;;;;;;;5052350;28;19913;-83
2022/02/17 11:56:13;;;;;;;;;;;;;;;;;;5053419;28;19999;-81
2022/02/17 11:58:43;;;;;;;;;;;;;;;;;;5053501;28;19913;-78
2022/02/17 12:01:24;;;;;;;;;;;;;;;;;;5053441;28;19960;-82
2022/02/17 12:04:04;;;;;;;;;;;;;;;;;;5053489;28;20381;-76
2022/02/17 12:06:34;;;;;;;;;;;;;;;;;;5052124;28;19916;-82
2022/02/17 12:08:59;;;;;;;;;;;;;;;;;;5053234;28;19975;-76
2022/02/17 12:11:26;;;;;;;;;;;;;;;;;;5053143;28;19916;-84
2022/02/17 12:13:52;;;;;;;;;;;;;;;;;;5053070;28;19928;-83
2022/02/17 12:16:33;;;;;;;;;;;;;;;;;;5053113;28;19917;-77
2022/02/17 12:19:12;;;;;;;;;;;;;;;;;;5051860;28;20395;-78
2022/02/17 12:21:40;;;;;;;;;;;;;;;;;;5053425;28;19916;-76
2022/02/17 12:24:05;;;;;;;;;;;;;;;;;;5053238;28;19913;-81
2022/02/17 12:26:40;;;;;;;;;;;;;;;;;;5053102;28;19917;-82
2022/02/17 12:29:29;;;;;;;;;;;;;;;;;;5053030;28;19916;-75
2022/02/17 12:31:58;;;;;;;;;;;;;;;;;;5051764;28;19917;-81
2022/02/17 12:34:25;;;;;;;;;;;;;;;;;;5053049;28;19917;-81
2022/02/17 12:36:50;;;;;;;;;;;;;;;;;;5052784;28;19912;-79
2022/02/17 12:39:16;;;;;;;;;;;;;;;;;;5052935;28;20021;-81
2022/02/17 12:42:01;;;;;;;;;;;;;;;;;;5051740;28;19917;-83
2022/02/17 12:44:30;;;;;;;;;;;;;;;;;;5054151;28;19928;-81
2022/02/17 12:46:56;;;;;;;;;;;;;;;;;;5056836;28;19916;-77
2022/02/17 12:49:22;;;;;;;;;;;;;;;;;;5056509;28;20289;-83
2022/02/17 12:51:48;;;;;;;;;;;;;;;;;;5056416;28;19917;-82
2022/02/17 12:54:13;;;;;;;;;;;;;;;;;;5056537;28;19919;-83
2022/02/17 12:56:40;;;;;;;;;;;;;;;;;;5056486;28;19974;-82
2022/02/17 12:59:10;;;;;;;;;;;;;;;;;;5056366;28;19923;-83
2022/02/17 13:01:39;;;;;;;;;;;;;;;;;;5056496;28;19947;-80
2022/02/17 13:04:05;;;;;;;;;;;;;;;;;;5055158;28;19924;-82
2022/02/17 13:06:30;;;;;;;;;;;;;;;;;;5056298;28;19913;-80
2022/02/17 13:08:56;;;;;;;;;;;;;;;;;;5054874;28;19969;-78
2022/02/17 13:11:24;;;;;;;;;;;;;;;;;;5056227;28;19924;-76
2022/02/17 13:13:59;;;;;;;;;;;;;;;;;;5052981;28;19952;-79
2022/02/17 13:16:25;;;;;;;;;;;;;;;;;;5036081;28;19924;-81
2022/02/17 13:18:50;;;;;;;;;;;;;;;;;;5046762;28;19917;-76
2022/02/17 13:21:17;;;;;;;;;;;;;;;;;;5054976;28;19928;-77
2022/02/17 13:23:43;;;;;;;;;;;;;;;;;;5040552;28;19913;-84
2022/02/17 13:26:30;;;;;;;;;;;;;;;;;;5043309;28;20460;-77
2022/02/17 13:28:56;;;;;;;;;;;;;;;;;;5055663;28;19917;-80
2022/02/17 13:31:23;;;;;;;;;;;;;;;;;;5055800;28;19970;-83
2022/02/17 13:33:48;;;;;;;;;;;;;;;;;;5055824;28;20369;-79
2022/02/17 13:36:24;;;;;;;;;;;;;;;;;;5055440;28;19917;-80
2022/02/17 13:39:02;;;;;;;;;;;;;;;;;;5055449;28;19916;-80
2022/02/17 13:41:28;;;;;;;;;;;;;;;;;;5055713;28;19916;-83
2022/02/17 13:43:55;;;;;;;;;;;;;;;;;;5055414;28;20345;-84
2022/02/17 13:46:21;;;;;;;;;;;;;;;;;;5055569;28;20015;-82
2022/02/17 13:48:46;;;;;;;;;;;;;;;;;;5055652;28;20003;-85
2022/02/17 13:51:12;;;;;;;;;;;;;;;;;;5055078;28;20364;-86
2022/02/17 13:53:42;;;;;;;;;;;;;;;;;;5055457;28;20381;-84
2022/02/17 13:56:13;;;;;;;;;;;;;;;;;;5055404;28;19921;-77
2022/02/17 13:58:39;;;;;;;;;;;;;;;;;;5054918;28;20373;-84
2022/02/17 14:01:04;;;;;;;;;;;;;;;;;;5055242;28;19924;-87
2022/02/17 14:03:34;;;;;;;;;;;;;;;;;;5055365;28;19924;-77
2022/02/17 14:06:14;;;;;;;;;;;;;;;;;;5054277;28;19974;-89
2022/02/17 14:08:39;;;;;;;;;;;;;;;;;;5054896;28;20047;-77
2022/02/17 14:11:05;;;;;;;;;;;;;;;;;;5055120;28;19979;-76
2022/02/17 14:13:30;;;;;;;;;;;;;;;;;;5054636;28;20403;-85
2022/02/17 14:15:57;;;;;;;;;;;;;;;;;;5054950;28;20011;-80
2022/02/17 14:18:23;;;;;;;;;;;;;;;;;;5054859;28;19955;-88
2022/02/17 14:20:49;;;;;;;;;;;;;;;;;;5053651;28;19960;-85
2022/02/17 14:23:14;;;;;;;;;;;;;;;;;;5054843;28;20007;-84
2022/02/17 14:25:40;;;;;;;;;;;;;;;;;;5054809;28;20007;-85
2022/02/17 14:28:06;;;;;;;;;;;;;;;;;;5054910;28;19916;-84
2022/02/17 14:30:31;;;;;;;;;;;;;;;;;;5054616;28;19917;-83
2022/02/17 14:32:57;;;;;;;;;;;;;;;;;;5054701;28;19974;-85
2022/02/17 14:35:22;;;;;;;;;;;;;;;;;;5054425;28;19970;-84
2022/02/17 14:37:48;;;;;;;;;;;;;;;;;;5052873;28;19995;-85
2022/02/17 14:40:17;;;;;;;;;;;;;;;;;;5054551;28;19963;-82
2022/02/17 14:42:43;;;;;;;;;;;;;;;;;;5054529;28;19917;-85
2022/02/17 14:45:09;;;;;;;;;;;;;;;;;;5054392;28;20372;-81
2022/02/17 14:47:37;;;;;;;;;;;;;;;;;;5054348;28;19963;-80
2022/02/17 14:50:03;;;;;;;;;;;;;;;;;;5054356;28;19928;-79
2022/02/17 14:52:28;;;;;;;;;;;;;;;;;;5054622;28;20387;-78
2022/02/17 14:54:55;;;;;;;;;;;;;;;;;;5054165;28;19970;-81
2022/02/17 14:57:20;;;;;;;;;;;;;;;;;;5053850;28;20019;-80
2022/02/17 14:59:45;;;;;;;;;;;;;;;;;;5054058;28;20035;-78
2022/02/17 15:02:11;;;;;;;;;;;;;;;;;;5042581;28;19918;-80
2022/02/17 15:04:36;;;;;;;;;;;;;;;;;;5053111;28;19939;-81
2022/02/17 15:07:02;;;;;;;;;;;;;;;;;;5053564;28;19921;-83
2022/02/17 15:09:28;;;;;;;;;;;;;;;;;;5053943;28;20379;-81
2022/02/17 15:11:53;;;;;;;;;;;;;;;;;;5053972;28;19928;-82
2022/02/17 15:14:19;;;;;;;;;;;;;;;;;;5053532;28;20284;-78
2022/02/17 15:16:44;;;;;;;;;;;;;;;;;;5053219;28;19917;-83
2022/02/17 15:19:10;;;;;;;;;;;;;;;;;;5044520;28;20270;-83
2022/02/17 15:21:35;;;;;;;;;;;;;;;;;;5033960;28;19917;-77
2022/02/17 15:24:01;;;;;;;;;;;;;;;;;;5034098;28;20691;-83
2022/02/17 15:26:27;;;;;;;;;;;;;;;;;;5034128;28;19921;-82
2022/02/17 15:28:53;;;;;;;;;;;;;;;;;;5034243;28;19917;-80
2022/02/17 15:31:18;;;;;;;;;;;;;;;;;;5035223;28;19927;-81
2022/02/17 15:33:43;;;;;;;;;;;;;;;;;;5036576;28;19920;-77
2022/02/17 15:36:09;;;;;;;;;;;;;;;;;;5043368;28;19920;-83
2022/02/17 15:38:34;;;;;;;;;;;;;;;;;;5037993;28;20282;-82
2022/02/17 15:41:01;;;;;;;;;;;;;;;;;;5034442;28;20821;-80
2022/02/17 15:43:26;;;;;;;;;;;;;;;;;;5043760;28;19923;-81
2022/02/17 15:45:52;;;;;;;;;;;;;;;;;;5053645;28;19917;-83
2022/02/17 15:48:17;;;;;;;;;;;;;;;;;;5053297;28;19921;-79
2022/02/17 15:50:42;;;;;;;;;;;;;;;;;;5039569;28;19927;-82
2022/02/17 15:53:09;;;;;;;;;;;;;;;;;;5041357;28;19917;-81
2022/02/17 15:55:34;;;;;;;;;;;;;;;;;;5040115;28;19921;-79
2022/02/17 15:58:00;;;;;;;;;;;;;;;;;;5044984;28;19927;-81
2022/02/17 16:00:25;;;;;;;;;;;;;;;;;;5033339;28;19919;-77
2022/02/17 16:02:51;;;;;;;;;;;;;;;;;;5033542;28;19917;-81
2022/02/17 16:05:17;;;;;;;;;;;;;;;;;;5033515;28;19968;-82
2022/02/17 16:07:42;;;;;;;;;;;;;;;;;;5038791;28;19971;-83
2022/02/17 16:10:08;;;;;;;;;;;;;;;;;;5041197;28;20361;-82
2022/02/17 16:12:34;;;;;;;;;;;;;;;;;;5042115;28;19921;-76
2022/02/17 16:15:00;;;;;;;;;;;;;;;;;;5038893;28;19964;-79
2022/02/17 16:17:25;;;;;;;;;;;;;;;;;;5041525;28;19921;-76
2022/02/17 16:19:51;;;;;;;;;;;;;;;;;;5044483;28;19920;-83
2022/02/17 16:22:19;;;;;;;;;;;;;;;;;;5045349;28;20504;-77
2022/02/17 16:24:44;;;;;;;;;;;;;;;;;;5045718;28;19955;-81
2022/02/17 16:27:10;;;;;;;;;;;;;;;;;;5043080;28;20471;-79
2022/02/17 16:29:36;;;;;;;;;;;;;;;;;;5041872;28;19932;-76
2022/02/17 16:32:02;;;;;;;;;;;;;;;;;;5044841;28;19925;-79
2022/02/17 16:34:28;;;;;;;;;;;;;;;;;;5045248;28;19925;-81
2022/02/17 16:36:53;;;;;;;;;;;;;;;;;;5044388;28;19921;-81
2022/02/17 16:39:20;;;;;;;;;;;;;;;;;;5042696;28;19951;-84
2022/02/17 16:41:46;;;;;;;;;;;;;;;;;;5041874;28;19921;-84
2022/02/17 16:44:12;;;;;;;;;;;;;;;;;;5041871;28;19921;-83
2022/02/17 16:46:38;;;;;;;;;;;;;;;;;;5047939;28;19932;-85